createdAt,value
2018-02-05T00:02:12.000Z,14.43
2018-02-05T00:04:42.799Z,14.87
2018-02-05T00:07:13.616Z,13.67
2018-02-05T00:09:44.422Z,14.90
2018-02-05T00:12:15.165Z,13.77
2018-02-05T00:14:45.931Z,15.20
2018-02-05T00:17:16.727Z,13.40
2018-02-05T00:19:47.550Z,13.87
2018-02-05T00:22:18.300Z,14.10
2018-02-05T00:24:49.080Z,13.33
2018-02-05T00:27:19.832Z,14.83
2018-02-05T00:29:50.598Z,14.83
2018-02-05T00:32:21.349Z,12.53
2018-02-05T00:34:52.116Z,14.33
2018-02-05T00:37:22.868Z,13.10
2018-02-05T00:39:53.676Z,14.53
2018-02-05T00:42:24.443Z,13.57
2018-02-05T00:44:55.219Z,14.10
2018-02-05T00:47:25.972Z,13.77
2018-02-05T00:49:56.856Z,12.80
2018-02-05T00:52:27.639Z,13.07
2018-02-05T00:54:58.397Z,13.67
2018-02-05T00:57:29.156Z,13.67
2018-02-05T00:59:59.967Z,12.40
2018-02-05T01:02:30.750Z,11.80
2018-02-05T01:05:01.526Z,12.00
2018-02-05T01:07:32.280Z,14.10
2018-02-05T01:10:03.140Z,11.90
2018-02-05T01:12:33.896Z,12.30
2018-02-05T01:15:04.656Z,11.90
2018-02-05T01:17:35.425Z,13.17
2018-02-05T01:20:06.224Z,15.03
2018-02-05T01:22:36.991Z,14.40
2018-02-05T01:25:07.829Z,13.13
2018-02-05T01:27:38.590Z,13.37
2018-02-05T01:30:09.352Z,14.60
2018-02-05T01:32:40.107Z,14.20
2018-02-05T01:35:10.895Z,11.80
2018-02-05T01:37:41.649Z,13.50
2018-02-05T01:40:12.460Z,12.77
2018-02-05T01:42:43.216Z,14.23
2018-02-05T01:45:14.006Z,13.03
2018-02-05T01:47:44.748Z,14.37
2018-02-05T01:50:15.519Z,13.30
2018-02-05T01:52:46.295Z,14.37
2018-02-05T01:55:17.183Z,14.50
2018-02-05T01:57:47.933Z,13.47
2018-02-05T02:00:18.732Z,14.20
2018-02-05T02:02:49.526Z,14.87
2018-02-05T02:05:20.351Z,14.40
2018-02-05T02:07:51.133Z,13.87
2018-02-05T02:10:21.929Z,13.80
2018-02-05T02:12:52.696Z,14.27
2018-02-05T02:15:23.602Z,15.80
2018-02-05T02:17:54.340Z,15.30
2018-02-05T02:20:25.163Z,14.47
2018-02-05T02:22:55.951Z,13.50
2018-02-05T02:25:26.720Z,14.20
2018-02-05T02:27:57.475Z,13.60
2018-02-05T02:30:28.239Z,14.80
2018-02-05T02:32:58.987Z,13.93
2018-02-05T02:35:29.791Z,14.40
2018-02-05T02:38:00.553Z,14.03
2018-02-05T02:40:31.324Z,14.47
2018-02-05T02:43:02.082Z,12.33
2018-02-05T02:45:32.899Z,13.50
2018-02-05T02:48:03.660Z,14.77
2018-02-05T02:50:34.472Z,13.90
2018-02-05T02:53:05.233Z,12.53
2018-02-05T02:55:36.013Z,14.40
2018-02-05T02:58:06.762Z,14.50
2018-02-05T03:00:37.564Z,15.47
2018-02-05T03:03:08.353Z,13.87
2018-02-05T03:05:39.115Z,14.80
2018-02-05T03:08:09.878Z,13.97
2018-02-05T03:10:40.677Z,13.20
2018-02-05T03:13:11.420Z,14.23
2018-02-05T03:15:42.203Z,14.33
2018-02-05T03:18:12.940Z,14.03
2018-02-05T03:20:43.688Z,13.37
2018-02-05T03:23:14.428Z,14.37
2018-02-05T03:25:45.216Z,14.60
2018-02-05T03:28:15.953Z,15.90
2018-02-05T03:30:46.692Z,14.93
2018-02-05T03:33:17.451Z,14.60
2018-02-05T03:35:48.240Z,15.93
2018-02-05T03:38:19.056Z,16.30
2018-02-05T03:40:49.822Z,15.40
2018-02-05T03:43:20.561Z,13.27
2018-02-05T03:45:51.316Z,16.30
2018-02-05T03:48:22.068Z,14.77
2018-02-05T03:50:52.849Z,14.23
2018-02-05T03:53:23.660Z,13.30
2018-02-05T03:55:54.437Z,13.80
2018-02-05T03:58:25.181Z,15.23
2018-02-05T04:00:55.988Z,14.87
2018-02-05T04:03:26.728Z,14.70
2018-02-05T04:05:57.510Z,15.03
2018-02-05T04:08:28.375Z,15.70
2018-02-05T04:10:59.140Z,14.13
2018-02-05T04:13:29.884Z,15.60
2018-02-05T04:16:00.675Z,13.77
2018-02-05T04:18:31.452Z,16.03
2018-02-05T04:21:02.221Z,14.67
2018-02-05T04:23:32.955Z,15.10
2018-02-05T04:26:03.752Z,16.17
2018-02-05T04:28:34.504Z,15.83
2018-02-05T04:31:05.268Z,15.03
2018-02-05T04:33:36.007Z,15.50
2018-02-05T04:36:06.790Z,14.47
2018-02-05T04:38:37.521Z,14.90
2018-02-05T04:41:08.258Z,13.27
2018-02-05T04:43:39.004Z,13.97
2018-02-05T04:46:16.572Z,13.00
2018-02-05T04:48:47.313Z,15.23
2018-02-05T04:51:18.061Z,15.70
2018-02-05T04:53:48.812Z,14.70
2018-02-05T04:56:19.551Z,15.77
2018-02-05T04:58:50.310Z,15.20
2018-02-05T05:01:21.111Z,14.30
2018-02-05T05:03:51.870Z,15.00
2018-02-05T05:06:22.673Z,15.20
2018-02-05T05:08:53.442Z,15.33
2018-02-05T05:11:24.219Z,14.03
2018-02-05T05:13:54.989Z,14.33
2018-02-05T05:16:25.779Z,15.07
2018-02-05T05:18:56.545Z,15.00
2018-02-05T05:21:27.376Z,13.93
2018-02-05T05:23:58.184Z,14.37
2018-02-05T05:26:28.956Z,14.40
2018-02-05T05:28:59.737Z,14.40
2018-02-05T05:31:30.535Z,13.30
2018-02-05T05:34:01.305Z,15.90
2018-02-05T05:36:32.090Z,16.97
2018-02-05T05:39:02.888Z,13.40
2018-02-05T05:41:33.721Z,14.60
2018-02-05T05:44:04.490Z,14.27
2018-02-05T05:46:35.278Z,15.13
2018-02-05T05:49:06.104Z,15.73
2018-02-05T05:51:36.949Z,13.23
2018-02-05T05:54:07.716Z,13.07
2018-02-05T05:56:38.504Z,14.37
2018-02-05T05:59:09.260Z,15.20
2018-02-05T06:01:40.053Z,14.37
2018-02-05T06:04:10.821Z,15.43
2018-02-05T06:06:41.592Z,12.50
2018-02-05T06:09:12.349Z,14.70
2018-02-05T06:11:43.177Z,13.13
2018-02-05T06:14:13.939Z,13.53
2018-02-05T06:16:44.719Z,13.10
2018-02-05T06:19:15.488Z,14.33
2018-02-05T06:21:46.285Z,15.30
2018-02-05T06:24:17.063Z,14.90
2018-02-05T06:26:47.833Z,13.37
2018-02-05T06:29:18.618Z,15.13
2018-02-05T06:31:49.376Z,14.50
2018-02-05T06:34:20.126Z,13.47
2018-02-05T06:36:50.946Z,13.00
2018-02-05T06:39:21.735Z,13.13
2018-02-05T06:41:52.504Z,15.00
2018-02-05T06:44:23.265Z,12.97
2018-02-05T06:46:54.084Z,13.73
2018-02-05T06:49:24.843Z,12.43
2018-02-05T06:52:08.088Z,12.83
2018-02-05T06:54:51.256Z,13.98
2018-02-05T06:57:22.031Z,13.62
2018-02-05T06:59:52.791Z,12.50
2018-02-05T07:02:23.576Z,13.03
2018-02-05T07:04:54.342Z,12.80
2018-02-05T07:07:25.105Z,14.00
2018-02-05T07:09:55.909Z,14.57
2018-02-05T07:12:26.673Z,14.83
2018-02-05T07:14:57.440Z,14.17
2018-02-05T07:17:28.239Z,13.07
2018-02-05T07:19:59.001Z,14.43
2018-02-05T07:22:29.817Z,13.53
2018-02-05T07:25:00.633Z,13.50
2018-02-05T07:27:31.345Z,14.70
2018-02-05T07:30:02.132Z,13.03
2018-02-05T07:32:32.903Z,13.40
2018-02-05T07:35:03.668Z,13.63
2018-02-05T07:37:34.456Z,13.37
2018-02-05T07:40:05.208Z,12.17
2018-02-05T07:42:36.042Z,13.17
2018-02-05T07:45:06.846Z,13.87
2018-02-05T07:47:37.610Z,12.50
2018-02-05T07:50:08.369Z,12.70
2018-02-05T07:52:41.226Z,12.73
2018-02-05T07:55:12.000Z,13.65
2018-02-05T07:57:42.767Z,13.00
2018-02-05T08:00:13.527Z,13.10
2018-02-05T08:02:44.327Z,13.83
2018-02-05T08:05:15.155Z,13.40
2018-02-05T08:07:45.944Z,14.43
2018-02-05T08:10:16.724Z,13.20
2018-02-05T08:12:47.516Z,12.27
2018-02-05T08:15:18.278Z,13.10
2018-02-05T08:17:49.089Z,14.20
2018-02-05T08:20:19.850Z,13.27
2018-02-05T08:22:50.675Z,14.50
2018-02-05T08:25:21.419Z,11.90
2018-02-05T08:27:59.273Z,12.43
2018-02-05T08:30:30.060Z,12.43
2018-02-05T08:33:00.857Z,12.70
2018-02-05T08:35:31.619Z,13.70
2018-02-05T08:38:02.416Z,12.53
2018-02-05T08:40:33.532Z,11.53
2018-02-05T08:43:04.783Z,13.60
2018-02-05T08:45:35.940Z,12.40
2018-02-05T08:48:06.808Z,12.25
2018-02-05T08:50:37.559Z,11.30
2018-02-05T08:53:16.100Z,12.00
2018-02-05T08:55:46.911Z,11.77
2018-02-05T08:58:18.516Z,11.00
2018-02-05T09:00:49.329Z,12.20
2018-02-05T09:03:20.189Z,11.97
2018-02-05T09:05:50.980Z,11.43
2018-02-05T09:08:21.818Z,12.17
2018-02-05T09:10:52.565Z,12.07
2018-02-05T09:13:23.368Z,10.63
2018-02-05T09:15:54.117Z,11.43
2018-02-05T09:18:24.896Z,11.60
2018-02-05T09:20:55.638Z,11.10
2018-02-05T09:23:26.441Z,10.10
2018-02-05T09:25:57.264Z,10.47
2018-02-05T09:28:28.032Z,10.37
2018-02-05T09:30:58.769Z,10.83
2018-02-05T09:33:29.521Z,10.13
2018-02-05T09:36:00.257Z,11.37
2018-02-05T09:38:31.052Z,10.43
2018-02-05T09:41:01.835Z,10.40
2018-02-05T09:43:32.635Z,10.43
2018-02-05T09:46:03.393Z,10.43
2018-02-05T09:48:34.145Z,10.83
2018-02-05T09:51:04.883Z,9.47
2018-02-05T09:53:35.689Z,10.83
2018-02-05T09:56:06.453Z,9.20
2018-02-05T09:58:37.201Z,10.90
2018-02-05T10:01:08.014Z,10.27
2018-02-05T10:03:38.771Z,9.03
2018-02-05T10:06:09.511Z,9.30
2018-02-05T10:08:40.321Z,10.10
2018-02-05T10:11:11.082Z,10.00
2018-02-05T10:13:41.875Z,10.20
2018-02-05T10:16:12.666Z,9.93
2018-02-05T10:18:43.477Z,10.10
2018-02-05T10:21:14.234Z,10.73
2018-02-05T10:23:45.032Z,11.00
2018-02-05T10:26:15.806Z,10.13
2018-02-05T10:28:46.629Z,10.03
2018-02-05T10:31:17.439Z,9.17
2018-02-05T10:33:48.232Z,9.57
2018-02-05T10:36:19.059Z,9.40
2018-02-05T10:38:49.902Z,8.97
2018-02-05T10:41:20.708Z,10.50
2018-02-05T10:43:51.495Z,8.37
2018-02-05T10:46:22.260Z,8.70
2018-02-05T10:48:53.059Z,8.60
2018-02-05T10:51:23.817Z,9.60
2018-02-05T10:53:54.567Z,8.73
2018-02-05T10:56:25.321Z,9.00
2018-02-05T10:58:56.104Z,10.50
2018-02-05T11:01:26.891Z,8.50
2018-02-05T11:03:57.698Z,9.60
2018-02-05T11:06:28.467Z,8.93
2018-02-05T11:08:59.255Z,8.77
2018-02-05T11:11:30.002Z,10.00
2018-02-05T11:14:00.786Z,7.93
2018-02-05T11:16:31.521Z,8.23
2018-02-05T11:19:02.320Z,9.57
2018-02-05T11:21:33.080Z,7.70
2018-02-05T11:24:03.848Z,8.47
2018-02-05T11:26:34.601Z,9.30
2018-02-05T11:29:05.405Z,8.23
2018-02-05T11:31:36.176Z,8.80
2018-02-05T11:34:06.938Z,9.27
2018-02-05T11:36:37.766Z,8.70
2018-02-05T11:39:08.612Z,7.80
2018-02-05T11:41:39.365Z,8.93
2018-02-05T11:44:10.161Z,9.40
2018-02-05T11:46:40.921Z,9.40
2018-02-05T11:49:11.667Z,8.30
2018-02-05T11:51:42.416Z,8.77
2018-02-05T11:54:13.242Z,8.53
2018-02-05T11:56:51.034Z,7.20
2018-02-05T11:59:21.785Z,7.75
2018-02-05T12:01:52.524Z,7.80
2018-02-05T12:04:23.351Z,8.23
2018-02-05T12:06:54.139Z,8.17
2018-02-05T12:09:24.921Z,8.60
2018-02-05T12:11:55.677Z,8.50
2018-02-05T12:14:26.508Z,8.37
2018-02-05T12:16:57.347Z,8.97
2018-02-05T12:19:28.161Z,8.83
2018-02-05T12:21:58.936Z,9.20
2018-02-05T12:24:29.709Z,8.27
2018-02-05T12:27:00.466Z,7.47
2018-02-05T12:29:31.265Z,8.60
2018-02-05T12:32:02.058Z,7.97
2018-02-05T12:34:32.871Z,8.20
2018-02-05T12:37:03.640Z,8.10
2018-02-05T12:39:34.405Z,8.27
2018-02-05T12:42:05.173Z,8.23
2018-02-05T12:44:36.021Z,8.70
2018-02-05T12:47:06.808Z,8.87
2018-02-05T12:49:37.597Z,7.70
2018-02-05T12:52:08.368Z,9.57
2018-02-05T12:54:39.171Z,8.50
2018-02-05T12:57:10.008Z,8.37
2018-02-05T12:59:41.703Z,9.07
2018-02-05T13:02:12.536Z,7.75
2018-02-05T13:04:48.376Z,9.57
2018-02-05T13:10:16.705Z,8.25
2018-02-05T13:12:47.474Z,9.23
2018-02-05T13:15:18.232Z,9.00
2018-02-05T13:17:49.016Z,9.70
2018-02-05T13:20:19.789Z,9.13
2018-02-05T13:22:50.560Z,9.63
2018-02-05T13:25:21.377Z,10.00
2018-02-05T13:27:52.165Z,10.57
2018-02-05T13:30:23.007Z,9.83
2018-02-05T13:32:53.783Z,8.83
2018-02-05T13:35:24.612Z,9.50
2018-02-05T13:37:55.377Z,9.57
2018-02-05T13:40:26.187Z,9.63
2018-02-05T13:42:56.952Z,8.70
2018-02-05T13:45:27.765Z,10.30
2018-02-05T13:47:58.541Z,9.80
2018-02-05T13:50:29.321Z,9.03
2018-02-05T13:53:00.104Z,9.93
2018-02-05T13:55:30.889Z,8.27
2018-02-05T13:58:01.679Z,8.70
2018-02-05T14:00:32.529Z,7.43
2018-02-05T14:03:03.300Z,9.07
2018-02-05T14:05:34.143Z,9.00
2018-02-05T14:08:04.936Z,9.33
2018-02-05T14:10:35.708Z,8.23
2018-02-05T14:13:06.452Z,8.10
2018-02-05T14:15:37.268Z,9.73
2018-02-05T14:18:08.029Z,8.33
2018-02-05T14:20:38.868Z,9.37
2018-02-05T14:23:09.620Z,8.30
2018-02-05T14:25:40.395Z,9.40
2018-02-05T14:28:16.028Z,9.40
2018-02-05T14:30:46.816Z,8.88
2018-02-05T14:33:17.596Z,9.07
2018-02-05T14:35:48.381Z,8.77
2018-02-05T14:38:19.181Z,8.93
2018-02-05T14:40:49.996Z,9.17
2018-02-05T14:43:20.777Z,9.27
2018-02-05T14:45:51.555Z,9.73
2018-02-05T14:48:22.333Z,10.23
2018-02-05T14:50:53.099Z,9.77
2018-02-05T14:53:23.868Z,12.40
2018-02-05T14:55:54.656Z,9.30
2018-02-05T14:58:25.444Z,9.87
2018-02-05T15:00:56.270Z,10.70
2018-02-05T15:03:27.025Z,9.43
2018-02-05T15:05:57.796Z,9.60
2018-02-05T15:08:28.565Z,9.23
2018-02-05T15:11:02.477Z,9.63
2018-02-05T15:13:33.304Z,9.73
2018-02-05T15:16:04.136Z,8.97
2018-02-05T15:18:34.980Z,8.70
2018-02-05T15:21:05.744Z,9.90
2018-02-05T15:23:36.516Z,8.90
2018-02-05T15:26:07.318Z,9.13
2018-02-05T15:28:38.095Z,9.63
2018-02-05T15:31:08.896Z,10.50
2018-02-05T15:33:39.676Z,9.67
2018-02-05T15:36:10.489Z,9.80
2018-02-05T15:38:41.261Z,8.50
2018-02-05T15:41:12.230Z,9.03
2018-02-05T15:43:43.427Z,11.35
2018-02-05T15:46:14.265Z,9.40
2018-02-05T15:48:45.020Z,10.43
2018-02-05T15:51:20.452Z,10.30
2018-02-05T15:54:08.787Z,9.70
2018-02-05T15:56:39.605Z,9.85
2018-02-05T15:59:10.364Z,10.90
2018-02-05T16:01:41.178Z,8.83
2018-02-05T16:04:11.977Z,9.90
2018-02-05T16:09:40.900Z,8.98
2018-02-05T16:15:09.144Z,10.00
2018-02-05T16:17:39.917Z,10.43
2018-02-05T16:20:10.778Z,9.87
2018-02-05T16:22:41.679Z,9.57
2018-02-05T16:25:12.424Z,10.00
2018-02-05T16:27:43.371Z,8.97
2018-02-05T16:30:14.129Z,9.30
2018-02-05T16:32:44.927Z,9.03
2018-02-05T16:35:15.682Z,10.17
2018-02-05T16:37:46.463Z,9.20
2018-02-05T16:40:17.220Z,8.97
2018-02-05T16:42:47.980Z,9.07
2018-02-05T16:45:18.716Z,9.33
2018-02-05T16:47:49.495Z,8.83
2018-02-05T16:50:20.292Z,8.43
2018-02-05T16:52:51.097Z,10.10
2018-02-05T16:55:21.889Z,8.57
2018-02-05T16:57:52.707Z,10.03
2018-02-05T17:00:23.493Z,9.67
2018-02-05T17:02:54.284Z,9.03
2018-02-05T17:05:25.022Z,8.27
2018-02-05T17:07:55.828Z,9.73
2018-02-05T17:10:26.592Z,9.40
2018-02-05T17:12:57.354Z,10.60
2018-02-05T17:15:28.124Z,9.30
2018-02-05T17:17:58.911Z,10.43
2018-02-05T17:20:29.651Z,10.50
2018-02-05T17:23:00.521Z,9.50
2018-02-05T17:25:31.285Z,9.33
2018-02-05T17:28:02.035Z,10.63
2018-02-05T17:30:32.766Z,9.47
2018-02-05T17:33:03.541Z,10.27
2018-02-05T17:35:34.315Z,8.70
2018-02-05T17:38:05.094Z,9.33
2018-02-05T17:40:35.853Z,9.20
2018-02-05T17:43:06.640Z,11.30
2018-02-05T17:45:37.399Z,9.17
2018-02-05T17:48:08.183Z,9.70
2018-02-05T17:50:38.929Z,10.40
2018-02-05T17:53:09.740Z,9.40
2018-02-05T17:55:40.487Z,9.67
2018-02-05T17:58:11.227Z,9.40
2018-02-05T18:00:42.017Z,11.47
2018-02-05T18:03:12.814Z,9.47
2018-02-05T18:05:43.580Z,10.33
2018-02-05T18:08:14.388Z,10.20
2018-02-05T18:10:45.209Z,11.37
2018-02-05T18:13:16.092Z,9.77
2018-02-05T18:15:46.875Z,10.37
2018-02-05T18:18:17.685Z,9.67
2018-02-05T18:20:48.437Z,11.10
2018-02-05T18:23:19.219Z,10.00
2018-02-05T18:25:49.980Z,10.50
2018-02-05T18:28:20.765Z,10.27
2018-02-05T18:30:51.528Z,9.60
2018-02-05T18:33:22.281Z,11.30
2018-02-05T18:35:53.032Z,10.47
2018-02-05T18:38:23.855Z,10.03
2018-02-05T18:40:54.608Z,10.60
2018-02-05T18:43:25.356Z,10.53
2018-02-05T18:45:56.120Z,9.90
2018-02-05T18:48:26.880Z,10.30
2018-02-05T18:50:57.634Z,9.37
2018-02-05T18:53:28.392Z,10.73
2018-02-05T18:55:59.128Z,11.07
2018-02-05T18:58:29.911Z,12.50
2018-02-05T19:01:00.678Z,10.33
2018-02-05T19:03:31.464Z,10.40
2018-02-05T19:06:02.236Z,9.60
2018-02-05T19:08:33.170Z,10.53
2018-02-05T19:11:03.968Z,10.60
2018-02-05T19:13:34.792Z,11.27
2018-02-05T19:16:05.564Z,8.93
2018-02-05T19:18:36.320Z,9.80
2018-02-05T19:21:07.088Z,10.40
2018-02-05T19:23:37.863Z,9.43
2018-02-05T19:26:08.652Z,10.50
2018-02-05T19:28:39.468Z,10.70
2018-02-05T19:31:10.216Z,10.37
2018-02-05T19:33:41.005Z,9.63
2018-02-05T19:36:11.742Z,9.43
2018-02-05T19:38:42.504Z,8.70
2018-02-05T19:41:13.265Z,9.57
2018-02-05T19:43:44.058Z,9.87
2018-02-05T19:46:14.803Z,9.90
2018-02-05T19:48:45.619Z,10.30
2018-02-05T19:51:16.382Z,9.77
2018-02-05T19:53:47.198Z,9.37
2018-02-05T19:56:17.954Z,10.43
2018-02-05T19:58:48.809Z,11.70
2018-02-05T20:01:19.616Z,10.50
2018-02-05T20:03:50.436Z,10.40
2018-02-05T20:06:21.262Z,11.00
2018-02-05T20:08:52.084Z,11.13
2018-02-05T20:11:22.835Z,10.40
2018-02-05T20:13:53.646Z,10.10
2018-02-05T20:16:24.422Z,8.83
2018-02-05T20:18:55.227Z,10.23
2018-02-05T20:21:25.988Z,9.23
2018-02-05T20:23:56.762Z,10.30
2018-02-05T20:26:27.567Z,9.50
2018-02-05T20:28:58.401Z,10.37
2018-02-05T20:31:36.221Z,9.17
2018-02-05T20:34:07.125Z,8.75
2018-02-05T20:36:37.909Z,9.43
2018-02-05T20:39:08.806Z,8.20
2018-02-05T20:41:39.564Z,10.03
2018-02-05T20:44:10.368Z,8.50
2018-02-05T20:46:41.141Z,10.40
2018-02-05T20:49:12.015Z,9.60
2018-02-05T20:51:42.793Z,9.93
2018-02-05T20:54:13.624Z,9.90
2018-02-05T20:56:44.468Z,9.97
2018-02-05T20:59:15.303Z,9.50
2018-02-05T21:01:46.080Z,9.60
2018-02-05T21:04:16.868Z,9.93
2018-02-05T21:06:47.619Z,9.20
2018-02-05T21:09:18.406Z,9.03
2018-02-05T21:11:50.192Z,8.73
2018-02-05T21:14:20.978Z,9.65
2018-02-05T21:16:51.775Z,8.57
2018-02-05T21:19:22.533Z,9.40
2018-02-05T21:21:53.272Z,10.23
2018-02-05T21:24:24.030Z,9.53
2018-02-05T21:26:54.825Z,10.40
2018-02-05T21:29:25.617Z,8.50
2018-02-05T21:31:56.368Z,8.70
2018-02-05T21:34:27.197Z,9.40
2018-02-05T21:36:57.936Z,9.53
2018-02-05T21:39:28.744Z,8.97
2018-02-05T21:41:59.523Z,8.80
2018-02-05T21:44:30.406Z,9.97
2018-02-05T21:47:01.177Z,9.10
2018-02-05T21:49:31.970Z,8.83
2018-02-05T21:52:02.708Z,9.80
2018-02-05T21:54:33.550Z,9.90
2018-02-05T21:57:04.312Z,9.23
2018-02-05T21:59:35.405Z,10.03
2018-02-05T22:02:06.148Z,10.60
2018-02-05T22:04:36.942Z,10.07
2018-02-05T22:07:07.776Z,10.10
2018-02-05T22:09:38.536Z,9.60
2018-02-05T22:12:09.342Z,8.67
2018-02-05T22:14:40.229Z,9.80
2018-02-05T22:17:11.018Z,9.73
2018-02-05T22:19:41.779Z,10.13
2018-02-05T22:22:12.515Z,9.57
2018-02-05T22:24:43.284Z,10.47
2018-02-05T22:27:14.078Z,9.97
2018-02-05T22:29:44.858Z,11.50
2018-02-05T22:32:15.592Z,10.40
2018-02-05T22:34:46.336Z,9.57
2018-02-05T22:37:17.096Z,9.83
2018-02-05T22:39:47.956Z,10.17
2018-02-05T22:42:18.741Z,10.13
2018-02-05T22:44:49.528Z,9.70
2018-02-05T22:47:20.282Z,11.33
2018-02-05T22:49:51.136Z,9.47
2018-02-05T22:52:21.900Z,10.70
2018-02-05T22:54:52.731Z,10.93
2018-02-05T22:57:23.500Z,10.67
2018-02-05T22:59:54.275Z,9.33
2018-02-05T23:02:25.008Z,9.80
2018-02-05T23:04:55.796Z,10.50
2018-02-05T23:07:26.587Z,11.27
2018-02-05T23:09:57.436Z,10.10
2018-02-05T23:12:28.262Z,9.73
2018-02-05T23:14:58.975Z,11.50
2018-02-05T23:17:29.786Z,9.40
2018-02-05T23:20:00.641Z,9.40
2018-02-05T23:22:31.456Z,10.93
2018-02-05T23:25:02.306Z,10.27
2018-02-05T23:27:33.048Z,10.30
2018-02-05T23:30:03.836Z,9.50
2018-02-05T23:32:34.614Z,10.97
2018-02-05T23:35:05.456Z,9.97
2018-02-05T23:37:36.384Z,14.10
2018-02-05T23:40:07.262Z,12.50
2018-02-05T23:42:38.024Z,11.87
2018-02-05T23:45:08.801Z,10.97
2018-02-05T23:47:39.547Z,13.20
2018-02-05T23:50:10.319Z,12.70
2018-02-05T23:52:48.035Z,13.97
2018-02-05T23:55:18.913Z,12.70
2018-02-05T23:57:49.690Z,11.60
